Portada
METAR-TAF:

METAR-TAF

Aeropuertos :

Aeropuerto Internacional de Bagdad

Bagdad, Iraq

latitud: 33-15-45N, longitud: 44-14-04E, altitud: 35 m

Observación

El informe se hizo hace 1 hora y 21 minutos, a las 05:00 UTC
Viento 5 kt del oeste-noroeste, variando entre oeste y norte-noroeste
Temperatura 0°C
Humedad 86%
Presión 1025 hPa
Visibilidad 10 km o más
sin nubes por debajo de 1500 m y sin presencia de cumulonimbus.

METAR: ORBI 190500Z 30005KT 270V330 CAVOK M00/M02 Q1025 NOSIG

Hora: 09:21 (06:21 UTC)

Pronóstico

El informe se hizo hace 2 horas y 21 minutos, a las 04:00 UTC
Pronóstico válido del 19 a las 06 UTC al 20 a las 06 UTC
Viento 8 kt del oeste-noroeste
Visibilidad: 8000 m

TAF: ORBI 190400Z 1906/2006 30008KT 8000 NSC

Observaciones y pronósticos meteorológicos de más de 4000 aeropuertos (mensajes METAR y TAF).

Los puntos amarillos y rojos representan las estaciones disponibles.

Ponga el ratón en el punto deseado para ver el nombre de la estación.

Haga clic para ver las observaciones y los pronósticos meteorológicos.

Para cambiar el mapa : haga clic en los botones verdes con una cruz de color negro para hacer un zoom, en el botón verde con un guión para alejar o en las flechas verdes para mapas adyacentes.


METAR-TAF: